Time;durP1;ratioP1;P1;durP2;ratioP2;P2;SDS_P1;SDS_P2;PMS_P1;PMS_P2;Temp;Humidity;BMP_temperature;BMP_pressure;BME280_temperature;BME280_humidity;BME280_pressure;Samples;Min_cycle;Max_cycle;Signal;HPM_P1;HPM_P2
2022/10/26 00:01:07;;;;;;;;;;;;;;;12.24;96.08;101350.84;4961600;28;19953;-74
2022/10/26 00:03:34;;;;;;;;;;;;;;;12.25;96.14;101347.31;4961267;28;19906;-74
2022/10/26 00:06:09;;;;;;;;;;;;;;;12.24;95.94;101350.84;4978548;28;19910;-75
2022/10/26 00:08:35;;;;;;;;;;;;;;;12.23;96.25;101344.75;4961368;28;20161;-74
2022/10/26 00:11:01;;;;;;;;;;;;;;;12.23;96.29;101336.88;4961346;28;19922;-74
2022/10/26 00:13:26;;;;;;;;;;;;;;;12.23;96.09;101336.03;4978485;28;19937;-74
2022/10/26 00:15:52;;;;;;;;;;;;;;;12.23;96.21;101338.66;4978321;28;19918;-74
2022/10/26 00:18:17;;;;;;;;;;;;;;;12.22;96.23;101329.06;4977003;28;20232;-74
2022/10/26 00:20:43;;;;;;;;;;;;;;;12.21;96.34;101333.47;4977536;28;19910;-75
2022/10/26 00:23:20;;;;;;;;;;;;;;;12.21;96.36;101322.13;4977347;28;19933;-74
2022/10/26 00:25:53;;;;;;;;;;;;;;;12.20;96.28;101323.88;4993542;28;19922;-74
2022/10/26 00:28:24;;;;;;;;;;;;;;;12.20;96.08;101318.63;4978511;28;20141;-74
2022/10/26 00:30:50;;;;;;;;;;;;;;;12.20;96.23;101317.75;4977207;28;20148;-74
2022/10/26 00:33:16;;;;;;;;;;;;;;;12.20;96.24;101320.41;4959539;28;19925;-75
2022/10/26 00:35:41;;;;;;;;;;;;;;;12.18;95.66;101312.56;4978502;28;19949;-74
2022/10/26 00:38:06;;;;;;;;;;;;;;;12.17;95.96;101312.63;4961006;28;19968;-74
2022/10/26 00:40:32;;;;;;;;;;;;;;;12.17;95.75;101312.63;4960487;28;19936;-74
2022/10/26 00:42:57;;;;;;;;;;;;;;;12.16;96.22;101313.56;4978381;28;19996;-74
2022/10/26 00:45:24;;;;;;;;;;;;;;;12.17;96.34;101310.00;4977809;28;19921;-74
2022/10/26 00:48:00;;;;;;;;;;;;;;;12.15;96.30;101307.47;4978618;28;20345;-74
2022/10/26 00:50:32;;;;;;;;;;;;;;;12.16;96.44;101316.19;4977634;28;19949;-74
2022/10/26 00:52:59;;;;;;;;;;;;;;;12.16;96.50;101308.31;4978217;28;19921;-74
2022/10/26 00:55:26;;;;;;;;;;;;;;;12.16;96.51;101308.31;4992957;28;19965;-75
2022/10/26 00:57:52;;;;;;;;;;;;;;;12.15;96.45;101307.47;4978671;28;20200;-74
2022/10/26 01:00:18;;;;;;;;;;;;;;;12.16;96.54;101305.69;4977865;28;19929;-74
2022/10/26 01:02:48;;;;;;;;;;;;;;;12.16;96.53;101309.16;4993114;28;19922;-74
2022/10/26 01:05:14;;;;;;;;;;;;;;;12.16;96.30;101300.44;4977616;28;19910;-74
2022/10/26 01:07:43;;;;;;;;;;;;;;;12.15;96.19;101293.47;4979319;28;19933;-74
2022/10/26 01:10:08;;;;;;;;;;;;;;;12.13;96.12;101290.03;4997297;28;19929;-75
2022/10/26 01:12:34;;;;;;;;;;;;;;;12.12;96.31;101291.81;4979725;28;19921;-74
2022/10/26 01:14:59;;;;;;;;;;;;;;;12.12;96.76;101290.97;4996272;28;19909;-74
2022/10/26 01:17:34;;;;;;;;;;;;;;;12.12;96.88;101294.44;4997121;28;19914;-74
2022/10/26 01:20:14;;;;;;;;;;;;;;;12.11;96.78;101287.47;4997983;28;20271;-74
2022/10/26 01:22:54;;;;;;;;;;;;;;;12.10;96.46;101289.25;5000701;28;19927;-74
2022/10/26 01:25:29;;;;;;;;;;;;;;;12.12;96.97;101276.06;4989933;28;20157;-74
2022/10/26 01:27:54;;;;;;;;;;;;;;;12.10;96.53;101273.50;5001214;28;19917;-74
2022/10/26 01:30:26;;;;;;;;;;;;;;;12.11;96.86;101263.84;4983178;28;20247;-74
2022/10/26 01:33:03;;;;;;;;;;;;;;;12.09;96.25;101263.91;4999918;28;19944;-74
2022/10/26 01:35:31;;;;;;;;;;;;;;;12.08;96.54;101270.09;4999202;28;19952;-75
2022/10/26 01:38:13;;;;;;;;;;;;;;;12.08;96.72;101288.47;5000602;28;19930;-74
2022/10/26 01:40:41;;;;;;;;;;;;;;;12.08;96.81;101283.22;4999805;28;19918;-74
2022/10/26 01:43:08;;;;;;;;;;;;;;;12.08;96.73;101277.97;5000881;28;20303;-74
2022/10/26 01:45:39;;;;;;;;;;;;;;;12.08;97.06;101274.50;5000472;28;19940;-74
2022/10/26 01:48:05;;;;;;;;;;;;;;;12.08;96.98;101264.84;5000633;28;19929;-75
2022/10/26 01:50:31;;;;;;;;;;;;;;;12.08;96.82;101261.38;5000568;28;19914;-74
2022/10/26 01:52:56;;;;;;;;;;;;;;;12.07;96.71;101255.25;4983444;28;20495;-74
2022/10/26 01:55:40;;;;;;;;;;;;;;;12.07;96.80;101243.91;4982759;28;19921;-75
2022/10/26 01:58:39;;;;;;;;;;;;;;;12.07;96.50;101246.50;4999234;28;20231;-75
2022/10/26 02:01:25;;;;;;;;;;;;;;;12.05;96.69;101238.69;4983009;28;20193;-74
2022/10/26 02:04:02;;;;;;;;;;;;;;;12.05;96.60;101243.94;4950299;28;19933;-74
2022/10/26 02:06:35;;;;;;;;;;;;;;;12.04;96.76;101237.00;4981135;28;19996;-74
2022/10/26 02:09:00;;;;;;;;;;;;;;;12.04;97.01;101237.00;4990228;28;19928;-75
2022/10/26 02:11:37;;;;;;;;;;;;;;;12.04;97.05;101242.25;4998926;28;19949;-74
2022/10/26 02:14:16;;;;;;;;;;;;;;;12.05;97.00;101248.34;4983168;28;20089;-75
2022/10/26 02:17:01;;;;;;;;;;;;;;;12.05;97.28;101249.19;4982658;28;19917;-74
2022/10/26 02:19:37;;;;;;;;;;;;;;;12.05;97.19;101246.56;4982256;28;20463;-75
2022/10/26 02:22:13;;;;;;;;;;;;;;;12.05;97.28;101248.34;5000553;28;19913;-74
2022/10/26 02:24:46;;;;;;;;;;;;;;;12.04;97.15;101242.25;5000457;28;19917;-75
2022/10/26 02:27:15;;;;;;;;;;;;;;;12.05;97.23;101243.09;4982227;28;19921;-76
2022/10/26 02:29:42;;;;;;;;;;;;;;;12.05;96.85;101236.06;4982820;28;20001;-74
2022/10/26 02:32:08;;;;;;;;;;;;;;;12.05;96.85;101238.69;4982749;28;19952;-74
2022/10/26 02:34:35;;;;;;;;;;;;;;;12.05;97.05;101229.97;4997823;28;20233;-73
2022/10/26 02:37:02;;;;;;;;;;;;;;;12.05;96.95;101229.97;4982488;28;19918;-73
2022/10/26 02:39:31;;;;;;;;;;;;;;;12.05;97.15;101232.59;4982127;28;19921;-73
2022/10/26 02:42:00;;;;;;;;;;;;;;;12.03;96.74;101232.66;4999944;28;19914;-73
2022/10/26 02:44:31;;;;;;;;;;;;;;;12.02;96.98;101230.94;4999547;28;19914;-73
2022/10/26 02:46:59;;;;;;;;;;;;;;;12.03;96.77;101234.44;4982492;28;19928;-73
2022/10/26 02:49:24;;;;;;;;;;;;;;;12.02;97.08;101237.97;4999287;28;19917;-73
2022/10/26 02:51:59;;;;;;;;;;;;;;;12.02;97.27;101232.72;4966015;28;19922;-73
2022/10/26 02:54:27;;;;;;;;;;;;;;;12.01;97.15;101231.88;4999355;28;19920;-73
2022/10/26 02:56:55;;;;;;;;;;;;;;;12.01;97.19;101228.41;4999786;28;19937;-73
2022/10/26 02:59:23;;;;;;;;;;;;;;;12.02;97.29;101230.94;4981597;28;19926;-73
2022/10/26 03:01:49;;;;;;;;;;;;;;;12.02;97.23;101232.72;4982038;28;19910;-73
2022/10/26 03:04:14;;;;;;;;;;;;;;;12.01;97.21;101228.41;4998457;28;19918;-73
2022/10/26 03:06:40;;;;;;;;;;;;;;;12.00;96.98;101222.28;4981849;28;19928;-73
2022/10/26 03:09:05;;;;;;;;;;;;;;;12.00;97.18;101219.66;4997263;28;19940;-73
2022/10/26 03:11:34;;;;;;;;;;;;;;;12.01;96.98;101215.28;4981502;28;20223;-73
2022/10/26 03:13:59;;;;;;;;;;;;;;;12.01;97.05;101215.28;4998487;28;19921;-73
2022/10/26 03:16:24;;;;;;;;;;;;;;;12.01;97.36;101217.91;4981240;28;19940;-73
2022/10/26 03:18:50;;;;;;;;;;;;;;;12.00;97.04;101217.03;4982296;28;19922;-73
2022/10/26 03:21:15;;;;;;;;;;;;;;;12.00;97.30;101209.16;4981298;28;19906;-73
2022/10/26 03:23:40;;;;;;;;;;;;;;;12.00;97.14;101214.41;4981793;28;19910;-73
2022/10/26 03:26:06;;;;;;;;;;;;;;;12.01;97.40;101212.66;4946206;28;19921;-73
2022/10/26 03:28:31;;;;;;;;;;;;;;;12.00;97.15;101216.19;4998426;28;19917;-73
2022/10/26 03:30:59;;;;;;;;;;;;;;;12.00;97.45;101209.16;4981586;28;19918;-73
2022/10/26 03:33:32;;;;;;;;;;;;;;;12.01;97.49;101210.03;4997027;28;19910;-73
2022/10/26 03:35:57;;;;;;;;;;;;;;;12.01;97.44;101210.03;4999307;28;20308;-73
2022/10/26 03:38:23;;;;;;;;;;;;;;;12.00;97.26;101205.69;4997667;28;19918;-73
2022/10/26 03:40:48;;;;;;;;;;;;;;;12.00;97.51;101203.91;4999037;28;19944;-73
2022/10/26 03:43:14;;;;;;;;;;;;;;;12.01;97.56;101204.78;4980384;28;19917;-73
2022/10/26 03:45:39;;;;;;;;;;;;;;;12.01;97.53;101199.53;4998639;28;19913;-73
2022/10/26 03:48:07;;;;;;;;;;;;;;;12.01;97.49;101196.91;4981186;28;19984;-73
2022/10/26 03:50:35;;;;;;;;;;;;;;;12.01;97.50;101199.53;4997176;28;19917;-73
2022/10/26 03:53:01;;;;;;;;;;;;;;;12.01;97.49;101191.66;4998625;28;20135;-73
2022/10/26 03:55:26;;;;;;;;;;;;;;;12.00;97.53;101193.41;4980664;28;19937;-73
2022/10/26 03:57:52;;;;;;;;;;;;;;;12.00;97.71;101193.41;4964855;28;19917;-73
2022/10/26 04:00:17;;;;;;;;;;;;;;;12.00;97.61;101188.16;4993103;28;19921;-73
2022/10/26 04:02:45;;;;;;;;;;;;;;;12.01;97.47;101191.66;4998738;28;19976;-73
2022/10/26 04:05:10;;;;;;;;;;;;;;;12.01;97.62;101192.50;4998280;28;20124;-73
2022/10/26 04:07:36;;;;;;;;;;;;;;;12.01;97.87;101192.50;4996899;28;19921;-73
2022/10/26 04:10:01;;;;;;;;;;;;;;;12.01;97.73;101195.13;5013035;28;19926;-73
2022/10/26 04:12:26;;;;;;;;;;;;;;;12.02;97.88;101190.72;4997870;28;19917;-73
2022/10/26 04:14:52;;;;;;;;;;;;;;;12.02;97.71;101188.94;4997861;28;19941;-73
2022/10/26 04:17:17;;;;;;;;;;;;;;;12.02;97.82;101185.47;4997642;28;19917;-73
2022/10/26 04:19:42;;;;;;;;;;;;;;;12.02;98.07;101185.47;4998159;28;20009;-73
2022/10/26 04:22:08;;;;;;;;;;;;;;;12.02;97.77;101190.72;4996849;28;19910;-73
2022/10/26 04:24:33;;;;;;;;;;;;;;;12.02;97.79;101195.97;4996598;28;19913;-73
2022/10/26 04:26:58;;;;;;;;;;;;;;;12.02;98.04;101193.34;4969471;28;19937;-73
2022/10/26 04:29:24;;;;;;;;;;;;;;;12.02;98.29;101195.97;4988091;28;20112;-73
2022/10/26 04:31:49;;;;;;;;;;;;;;;12.02;98.20;101196.81;4997113;28;19925;-73
2022/10/26 04:34:14;;;;;;;;;;;;;;;12.02;98.33;101190.72;4996241;28;19921;-73
2022/10/26 04:36:40;;;;;;;;;;;;;;;12.02;98.02;101196.81;4980604;28;19929;-73
2022/10/26 04:39:05;;;;;;;;;;;;;;;12.02;98.34;101194.19;4996669;28;19917;-73
2022/10/26 04:41:30;;;;;;;;;;;;;;;12.03;98.39;101189.81;4998445;28;19913;-73
2022/10/26 04:43:56;;;;;;;;;;;;;;;12.03;98.24;101187.19;4980313;28;19981;-73
2022/10/26 04:46:21;;;;;;;;;;;;;;;12.03;98.44;101187.19;4997742;28;19926;-73
2022/10/26 04:48:47;;;;;;;;;;;;;;;12.03;98.32;101189.81;4980563;28;19936;-73
2022/10/26 04:51:12;;;;;;;;;;;;;;;12.02;98.59;101194.19;4996211;28;19943;-73
2022/10/26 04:53:37;;;;;;;;;;;;;;;12.03;98.38;101190.66;4964181;28;19918;-73
2022/10/26 04:56:02;;;;;;;;;;;;;;;12.05;98.72;101190.59;4979799;28;19921;-73
2022/10/26 04:58:28;;;;;;;;;;;;;;;12.03;98.49;101193.28;4997442;28;19917;-73
2022/10/26 05:00:53;;;;;;;;;;;;;;;12.04;98.63;101200.25;4997952;28;19910;-73
2022/10/26 05:03:19;;;;;;;;;;;;;;;12.04;98.63;101197.63;4996092;28;19922;-73
2022/10/26 05:05:46;;;;;;;;;;;;;;;12.04;98.65;101202.00;4996210;28;19914;-73
2022/10/26 05:08:11;;;;;;;;;;;;;;;12.05;99.03;101201.94;4997091;28;19906;-73
2022/10/26 05:10:37;;;;;;;;;;;;;;;12.05;98.83;101198.47;4997340;28;20304;-73
2022/10/26 05:13:02;;;;;;;;;;;;;;;12.05;98.93;101199.31;4998015;28;19956;-73
2022/10/26 05:15:27;;;;;;;;;;;;;;;12.05;98.84;101193.22;4979306;28;19922;-73
2022/10/26 05:18:01;;;;;;;;;;;;;;;12.05;99.20;101186.19;4996590;28;19918;-73
2022/10/26 05:20:30;;;;;;;;;;;;;;;12.05;99.25;101188.81;4997073;28;19905;-73
2022/10/26 05:23:00;;;;;;;;;;;;;;;12.06;99.09;101190.53;4980728;28;19910;-73
2022/10/26 05:25:25;;;;;;;;;;;;;;;12.07;99.12;101194.00;4997128;28;19989;-73
2022/10/26 05:27:50;;;;;;;;;;;;;;;12.07;99.29;101196.63;4997706;28;19918;-74
2022/10/26 05:30:16;;;;;;;;;;;;;;;12.06;99.20;101198.41;4996723;28;20108;-74
2022/10/26 05:32:41;;;;;;;;;;;;;;;12.08;99.12;101188.72;4997420;28;20108;-74
2022/10/26 05:35:06;;;;;;;;;;;;;;;12.08;99.41;101187.84;4994184;28;19955;-74
2022/10/26 05:37:31;;;;;;;;;;;;;;;12.08;99.26;101186.09;4996773;28;19917;-74
2022/10/26 05:39:57;;;;;;;;;;;;;;;12.09;99.13;101181.69;4996643;28;19921;-74
2022/10/26 05:42:24;;;;;;;;;;;;;;;12.09;99.20;101182.50;4979034;28;20256;-74
2022/10/26 05:44:49;;;;;;;;;;;;;;;12.10;99.22;101178.16;4997090;28;20268;-74
2022/10/26 05:47:14;;;;;;;;;;;;;;;12.10;99.20;101178.16;4979024;28;19914;-74
2022/10/26 05:49:40;;;;;;;;;;;;;;;12.09;98.90;101177.28;4979483;28;19925;-74
2022/10/26 05:52:05;;;;;;;;;;;;;;;12.10;98.86;101188.66;4995249;28;19922;-74
2022/10/26 05:54:31;;;;;;;;;;;;;;;12.10;98.98;101179.00;4996988;28;19957;-74
2022/10/26 05:56:56;;;;;;;;;;;;;;;12.12;99.31;101178.09;4997373;28;19921;-74
2022/10/26 05:59:21;;;;;;;;;;;;;;;12.12;99.36;101178.09;4999906;28;20235;-74
2022/10/26 06:02:16;;;;;;;;;;;;;;;12.12;99.09;101180.72;4996642;28;20179;-74
2022/10/26 06:04:46;;;;;;;;;;;;;;;12.12;99.43;101184.19;4944020;28;19922;-73
2022/10/26 06:07:13;;;;;;;;;;;;;;;12.12;99.21;101178.94;4998610;28;19913;-73
2022/10/26 06:09:39;;;;;;;;;;;;;;;12.12;99.18;101186.81;4999755;28;20090;-74
2022/10/26 06:12:04;;;;;;;;;;;;;;;12.12;99.46;101184.19;5010455;28;19948;-74
2022/10/26 06:14:30;;;;;;;;;;;;;;;12.12;99.40;101202.56;5011481;28;19917;-74
2022/10/26 06:17:00;;;;;;;;;;;;;;;12.12;99.60;101204.34;4996280;28;19980;-74
2022/10/26 06:19:45;;;;;;;;;;;;;;;12.14;99.29;101194.63;5007641;28;19925;-73
2022/10/26 06:22:32;;;;;;;;;;;;;;;12.12;99.37;101178.09;5008839;28;19918;-73
2022/10/26 06:25:09;;;;;;;;;;;;;;;12.13;99.59;101182.41;5001645;28;19910;-73
2022/10/26 06:27:45;;;;;;;;;;;;;;;12.14;99.47;101189.38;5000083;28;19922;-74
2022/10/26 06:30:10;;;;;;;;;;;;;;;12.14;99.41;101189.38;4971356;28;20232;-73
2022/10/26 06:32:37;;;;;;;;;;;;;;;12.14;99.58;101192.00;4982776;28;19924;-73
2022/10/26 06:35:05;;;;;;;;;;;;;;;12.14;99.70;101197.25;5000172;28;20247;-74
2022/10/26 06:37:30;;;;;;;;;;;;;;;12.14;99.60;101200.72;4999522;28;19917;-74
2022/10/26 06:39:56;;;;;;;;;;;;;;;12.13;99.61;101195.53;4998828;28;19917;-73
2022/10/26 06:42:21;;;;;;;;;;;;;;;12.14;99.46;101194.63;4982465;28;19941;-73
2022/10/26 06:44:47;;;;;;;;;;;;;;;12.14;99.63;101205.13;4966318;28;19922;-74
2022/10/26 06:47:20;;;;;;;;;;;;;;;12.12;99.88;101207.81;4997638;28;19918;-74
2022/10/26 06:49:51;;;;;;;;;;;;;;;12.12;99.81;101218.31;4997651;28;20239;-74
2022/10/26 06:52:19;;;;;;;;;;;;;;;12.13;99.76;101217.38;4998209;28;19906;-74
2022/10/26 06:54:50;;;;;;;;;;;;;;;12.13;99.71;101211.28;4999243;28;20137;-74
2022/10/26 06:57:16;;;;;;;;;;;;;;;12.12;99.71;101213.06;4998304;28;19925;-74
2022/10/26 06:59:53;;;;;;;;;;;;;;;12.13;99.80;101222.63;4998052;28;20280;-74
2022/10/26 07:02:19;;;;;;;;;;;;;;;12.14;99.73;101218.25;4998872;28;19917;-74
2022/10/26 07:04:45;;;;;;;;;;;;;;;12.13;99.91;101201.63;4999007;28;19925;-74
2022/10/26 07:07:17;;;;;;;;;;;;;;;12.12;99.72;101202.56;4998060;28;19931;-74
2022/10/26 07:09:43;;;;;;;;;;;;;;;12.13;99.72;101217.38;4985742;28;19929;-74
2022/10/26 07:12:08;;;;;;;;;;;;;;;12.14;100.00;101226.13;4994774;28;19922;-74
2022/10/26 07:14:33;;;;;;;;;;;;;;;12.14;99.82;101239.25;4962393;28;19922;-74
2022/10/26 07:16:58;;;;;;;;;;;;;;;12.13;99.99;101246.25;4978959;28;19914;-73
2022/10/26 07:19:24;;;;;;;;;;;;;;;12.14;99.91;101249.75;4974081;28;19914;-74
2022/10/26 07:21:49;;;;;;;;;;;;;;;12.15;100.00;101243.56;4977602;28;19920;-73
2022/10/26 07:24:17;;;;;;;;;;;;;;;12.14;99.53;101240.09;4977297;28;19922;-74
2022/10/26 07:26:42;;;;;;;;;;;;;;;12.14;99.40;101234.84;4977001;28;19910;-74
2022/10/26 07:29:10;;;;;;;;;;;;;;;12.14;99.46;101237.47;4965679;28;20013;-74
2022/10/26 07:31:37;;;;;;;;;;;;;;;12.15;99.55;101260.19;4991086;28;19926;-73
2022/10/26 07:34:02;;;;;;;;;;;;;;;12.15;99.58;101264.56;4979421;28;19938;-73
2022/10/26 07:36:28;;;;;;;;;;;;;;;12.16;99.27;101266.31;4978504;28;19925;-74
2022/10/26 07:38:53;;;;;;;;;;;;;;;12.16;99.52;101266.31;4979439;28;19910;-74
2022/10/26 07:41:19;;;;;;;;;;;;;;;12.16;99.56;101264.53;4965488;28;20001;-74
2022/10/26 07:43:44;;;;;;;;;;;;;;;12.16;99.48;101263.69;4978246;28;19922;-73
2022/10/26 07:46:13;;;;;;;;;;;;;;;12.17;99.61;101262.75;4981029;28;19957;-73
2022/10/26 07:48:40;;;;;;;;;;;;;;;12.18;99.54;101280.22;4963429;28;19933;-73
2022/10/26 07:51:05;;;;;;;;;;;;;;;12.17;99.44;101284.63;4979097;28;19916;-74
2022/10/26 07:53:31;;;;;;;;;;;;;;;12.18;99.65;101294.19;4976857;28;19918;-74
2022/10/26 07:55:56;;;;;;;;;;;;;;;12.19;99.74;101298.53;4978078;28;19918;-74
2022/10/26 07:58:24;;;;;;;;;;;;;;;12.21;99.58;101291.44;4965344;28;19926;-73
2022/10/26 08:00:50;;;;;;;;;;;;;;;12.22;99.94;101292.31;4981343;28;20191;-73
2022/10/26 08:03:19;;;;;;;;;;;;;;;12.23;100.00;101294.88;4959514;28;20367;-73
2022/10/26 08:05:45;;;;;;;;;;;;;;;12.25;100.00;101287.78;4967666;28;19948;-73
2022/10/26 08:08:12;;;;;;;;;;;;;;;12.26;100.00;101289.50;4983741;28;19917;-73
2022/10/26 08:10:40;;;;;;;;;;;;;;;12.27;100.00;101285.09;5003156;28;20213;-73
2022/10/26 08:13:06;;;;;;;;;;;;;;;12.29;100.00;101284.09;4968770;28;20153;-74
2022/10/26 08:15:31;;;;;;;;;;;;;;;12.31;100.00;101281.41;4959583;28;19949;-74
2022/10/26 08:17:56;;;;;;;;;;;;;;;12.33;100.00;101283.97;4987378;28;20150;-73
2022/10/26 08:20:22;;;;;;;;;;;;;;;12.36;100.00;101281.25;4988320;28;20150;-74
2022/10/26 08:22:47;;;;;;;;;;;;;;;12.37;100.00;101269.81;4960156;28;20226;-73
2022/10/26 08:25:13;;;;;;;;;;;;;;;12.40;100.00;101281.03;4975693;28;20000;-74
2022/10/26 08:27:38;;;;;;;;;;;;;;;12.42;100.00;101280.97;4971335;28;19917;-73
2022/10/26 08:30:04;;;;;;;;;;;;;;;12.44;100.00;101274.75;4966492;28;19984;-73
2022/10/26 08:32:29;;;;;;;;;;;;;;;12.47;100.00;101279.03;4980291;28;20145;-74
2022/10/26 08:34:55;;;;;;;;;;;;;;;12.51;100.00;101295.50;4973876;28;19922;-73
2022/10/26 08:37:21;;;;;;;;;;;;;;;12.53;100.00;101296.28;4980434;28;19925;-74
2022/10/26 08:39:47;;;;;;;;;;;;;;;12.55;100.00;101305.84;4980819;28;20082;-74
2022/10/26 08:42:22;;;;;;;;;;;;;;;12.58;100.00;101312.72;4980610;28;19945;-73
2022/10/26 08:44:50;;;;;;;;;;;;;;;12.60;100.00;101309.09;4973745;28;19945;-74
2022/10/26 08:47:15;;;;;;;;;;;;;;;12.63;100.00;101319.50;4992506;28;19918;-75
2022/10/26 08:49:53;;;;;;;;;;;;;;;12.68;100.00;101327.22;4975182;28;19949;-75
2022/10/26 08:52:23;;;;;;;;;;;;;;;12.69;100.00;101318.38;4964138;28;20068;-75
2022/10/26 08:54:54;;;;;;;;;;;;;;;12.73;100.00;101327.84;4966655;28;19956;-74
2022/10/26 08:57:28;;;;;;;;;;;;;;;12.76;100.00;101330.34;4959180;28;19906;-75
2022/10/26 08:59:59;;;;;;;;;;;;;;;12.79;100.00;101327.59;4977844;28;19918;-75
2022/10/26 09:02:24;;;;;;;;;;;;;;;12.82;100.00;101327.47;4962115;28;19924;-75
2022/10/26 09:04:50;;;;;;;;;;;;;;;12.82;100.00;101329.25;4976287;28;19921;-75
2022/10/26 09:07:16;;;;;;;;;;;;;;;12.84;100.00;101330.03;4973486;28;19910;-74
2022/10/26 09:09:47;;;;;;;;;;;;;;;12.87;100.00;101332.53;4995942;28;19921;-75
2022/10/26 09:12:22;;;;;;;;;;;;;;;12.90;100.00;101342.94;5002752;28;19956;-75
2022/10/26 09:14:51;;;;;;;;;;;;;;;12.96;100.00;101349.69;4989006;28;19920;-75
2022/10/26 09:17:35;;;;;;;;;;;;;;;12.99;100.00;101353.06;5010272;28;19921;-75
2022/10/26 09:20:03;;;;;;;;;;;;;;;13.03;100.00;101352.00;4992906;28;19948;-75
2022/10/26 09:22:36;;;;;;;;;;;;;;;13.08;100.00;101357.06;4988549;28;19937;-75
2022/10/26 09:25:15;;;;;;;;;;;;;;;13.12;100.00;101349.91;4993163;28;20016;-75
2022/10/26 09:27:43;;;;;;;;;;;;;;;13.14;100.00;101351.53;4997127;28;19916;-75
2022/10/26 09:30:13;;;;;;;;;;;;;;;13.17;100.00;101350.53;4997505;28;20233;-75
2022/10/26 09:32:43;;;;;;;;;;;;;;;13.21;100.00;101337.19;4994602;28;19986;-75
2022/10/26 09:35:14;;;;;;;;;;;;;;;13.23;100.00;101345.88;4977528;28;19917;-75
2022/10/26 09:37:45;;;;;;;;;;;;;;;13.28;100.00;101350.94;4993949;28;20225;-75
2022/10/26 09:40:40;;;;;;;;;;;;;;;13.33;100.00;101356.00;4999054;28;19948;-75
2022/10/26 09:43:09;;;;;;;;;;;;;;;13.38;100.00;101364.56;4982286;28;20193;-75
2022/10/26 09:45:40;;;;;;;;;;;;;;;13.43;100.00;101375.75;5002729;28;20231;-74
2022/10/26 09:48:21;;;;;;;;;;;;;;;13.48;100.00;101379.03;4995560;28;20224;-75
2022/10/26 09:50:47;;;;;;;;;;;;;;;13.52;100.00;101387.66;4998351;28;19960;-75
2022/10/26 09:53:13;;;;;;;;;;;;;;;13.57;100.00;101383.88;4999064;28;19913;-75
2022/10/26 09:55:41;;;;;;;;;;;;;;;13.61;100.00;101384.59;4998664;28;19956;-75
2022/10/26 09:58:11;;;;;;;;;;;;;;;13.65;100.00;101395.84;4982676;28;19977;-75
2022/10/26 10:00:37;;;;;;;;;;;;;;;13.67;100.00;101397.47;4988265;28;19916;-75
2022/10/26 10:03:16;;;;;;;;;;;;;;;13.70;100.00;101402.63;5008692;28;20221;-74
2022/10/26 10:05:41;;;;;;;;;;;;;;;13.72;100.00;101419.19;4988127;28;20144;-75
2022/10/26 10:08:14;;;;;;;;;;;;;;;13.76;100.00;101418.13;5002419;28;19914;-75
2022/10/26 10:11:05;;;;;;;;;;;;;;;13.78;100.00;101418.91;5004009;28;19929;-75
2022/10/26 10:13:51;;;;;;;;;;;;;;;13.83;100.00;101423.97;4978400;28;19917;-75
2022/10/26 10:16:20;;;;;;;;;;;;;;;13.86;100.00;101431.75;5013947;28;19913;-75
2022/10/26 10:18:52;;;;;;;;;;;;;;;13.85;100.00;101435.28;4999787;28;19981;-75
2022/10/26 10:21:17;;;;;;;;;;;;;;;13.88;100.00;101437.78;4999253;28;19906;-74
2022/10/26 10:23:54;;;;;;;;;;;;;;;13.91;100.00;101447.31;4981543;28;19910;-75
2022/10/26 10:26:19;;;;;;;;;;;;;;;13.93;100.00;101448.09;4999626;28;19913;-75
2022/10/26 10:28:55;;;;;;;;;;;;;;;13.95;100.00;101452.41;5001287;28;20125;-75
2022/10/26 10:31:22;;;;;;;;;;;;;;;13.98;100.00;101451.38;4976001;28;19921;-75
2022/10/26 10:33:48;;;;;;;;;;;;;;;14.00;100.00;101445.13;5003022;28;20213;-75
2022/10/26 10:36:21;;;;;;;;;;;;;;;14.03;100.00;101444.13;5000326;28;19914;-75
2022/10/26 10:38:48;;;;;;;;;;;;;;;14.06;100.00;101444.00;4992556;28;19968;-75
2022/10/26 10:41:35;;;;;;;;;;;;;;;14.08;100.00;101444.78;4999199;28;19996;-75
2022/10/26 10:44:14;;;;;;;;;;;;;;;14.13;100.00;101455.09;4997635;28;19929;-75
2022/10/26 10:46:39;;;;;;;;;;;;;;;14.17;100.00;101459.28;4996685;28;20117;-75
2022/10/26 10:49:17;;;;;;;;;;;;;;;14.19;100.00;101458.31;4980654;28;19976;-75
2022/10/26 10:51:43;;;;;;;;;;;;;;;14.23;100.00;101466.09;4971628;28;19977;-75
2022/10/26 10:54:27;;;;;;;;;;;;;;;14.26;100.00;101461.53;5003755;28;19913;-75
2022/10/26 10:56:54;;;;;;;;;;;;;;;14.30;100.00;101464.88;5002964;28;20276;-75
2022/10/26 10:59:36;;;;;;;;;;;;;;;14.33;100.00;101477.88;5000261;28;19936;-75
2022/10/26 11:02:05;;;;;;;;;;;;;;;14.35;100.00;101463.75;5018181;28;19917;-75
2022/10/26 11:04:42;;;;;;;;;;;;;;;14.38;100.00;101468.00;5023450;28;19913;-75
2022/10/26 11:07:09;;;;;;;;;;;;;;;14.42;100.00;101480.09;5033221;28;19913;-75
2022/10/26 11:09:36;;;;;;;;;;;;;;;14.43;100.00;101487.09;5017028;28;20270;-75
2022/10/26 11:12:06;;;;;;;;;;;;;;;14.46;100.00;101481.69;5014074;28;19913;-75
2022/10/26 11:14:37;;;;;;;;;;;;;;;14.50;100.00;101485.03;4997831;28;19945;-75
2022/10/26 11:17:15;;;;;;;;;;;;;;;14.53;100.00;101490.97;4998196;28;19914;-75
2022/10/26 11:19:48;;;;;;;;;;;;;;;14.55;100.00;101489.16;4997216;28;19917;-75
2022/10/26 11:22:19;;;;;;;;;;;;;;;14.59;100.00;101497.81;4998129;28;20458;-75
2022/10/26 11:24:48;;;;;;;;;;;;;;;14.62;100.00;101504.72;4999400;28;20111;-75
2022/10/26 11:27:15;;;;;;;;;;;;;;;14.65;100.00;101507.22;4998293;28;19996;-75
2022/10/26 11:29:43;;;;;;;;;;;;;;;14.68;100.00;101517.59;4998890;28;19968;-75
2022/10/26 11:32:14;;;;;;;;;;;;;;;14.70;100.00;101515.75;4997464;28;19929;-75
2022/10/26 11:34:49;;;;;;;;;;;;;;;14.71;100.00;101513.03;4998252;28;19973;-74
2022/10/26 11:37:27;;;;;;;;;;;;;;;14.75;100.00;101511.97;4998891;28;20179;-74
2022/10/26 11:40:02;;;;;;;;;;;;;;;14.78;100.00;101509.16;5018908;28;20013;-75
2022/10/26 11:42:42;;;;;;;;;;;;;;;14.81;100.00;101513.47;5016850;28;20179;-74
2022/10/26 11:45:19;;;;;;;;;;;;;;;14.84;100.00;101520.34;5018397;28;19913;-74
2022/10/26 11:47:50;;;;;;;;;;;;;;;14.86;100.00;101515.88;5000876;28;20158;-74
2022/10/26 11:50:24;;;;;;;;;;;;;;;14.88;100.00;101519.28;5018006;28;20176;-74
2022/10/26 11:52:57;;;;;;;;;;;;;;;14.90;100.00;101520.09;5018212;28;19952;-75
2022/10/26 11:55:22;;;;;;;;;;;;;;;14.92;100.00;101521.72;5000185;28;19952;-75
2022/10/26 11:57:49;;;;;;;;;;;;;;;14.94;100.00;101516.38;5000541;28;19909;-74
2022/10/26 12:00:16;;;;;;;;;;;;;;;14.96;100.00;101519.78;5017331;28;20204;-75
2022/10/26 12:02:45;;;;;;;;;;;;;;;14.99;100.00;101524.91;5017301;28;20215;-75
2022/10/26 12:05:18;;;;;;;;;;;;;;;15.03;100.00;101529.09;4996761;28;19919;-74
2022/10/26 12:08:06;;;;;;;;;;;;;;;15.05;100.00;101529.88;5012016;28;20120;-75
2022/10/26 12:10:33;;;;;;;;;;;;;;;15.08;100.00;101526.22;4988982;28;20000;-75
2022/10/26 12:13:20;;;;;;;;;;;;;;;15.12;100.00;101531.28;4980161;28;20148;-75
2022/10/26 12:15:49;;;;;;;;;;;;;;;15.16;100.00;101538.13;4984682;28;19980;-74
2022/10/26 12:18:20;;;;;;;;;;;;;;;15.19;100.00;101533.63;5009038;28;19918;-74
2022/10/26 12:20:48;;;;;;;;;;;;;;;15.23;100.00;101538.69;4998088;28;19917;-75
2022/10/26 12:23:15;;;;;;;;;;;;;;;15.26;100.00;101542.94;4996753;28;19916;-75
2022/10/26 12:25:44;;;;;;;;;;;;;;;15.29;100.00;101546.28;4998768;28;19918;-75
2022/10/26 12:28:29;;;;;;;;;;;;;;;15.32;100.00;101553.22;5000436;28;19917;-75
2022/10/26 12:31:14;;;;;;;;;;;;;;;15.35;100.00;101555.69;4997423;28;19932;-74
2022/10/26 12:33:50;;;;;;;;;;;;;;;15.39;100.00;101559.91;4983548;28;20474;-75
2022/10/26 12:36:34;;;;;;;;;;;;;;;15.44;100.00;101565.78;5013053;28;19949;-75
2022/10/26 12:39:02;;;;;;;;;;;;;;;15.47;100.00;101560.38;5009313;28;20213;-75
2022/10/26 12:41:28;;;;;;;;;;;;;;;15.50;100.00;101554.94;5005717;28;19972;-75
2022/10/26 12:43:57;;;;;;;;;;;;;;;15.54;100.00;101561.75;4992850;28;20195;-75